createdAt,value
2018-07-07T00:00:28.864Z,4.58
2018-07-07T00:01:32.965Z,4.78
2018-07-07T00:02:37.768Z,4.50
2018-07-07T00:03:41.983Z,4.35
2018-07-07T00:04:46.053Z,4.35
2018-07-07T00:05:50.190Z,4.80
2018-07-07T00:06:54.541Z,4.55
2018-07-07T00:07:58.609Z,4.95
2018-07-07T00:09:02.697Z,4.40
2018-07-07T00:10:07.060Z,4.55
2018-07-07T00:11:11.226Z,4.10
2018-07-07T00:12:15.288Z,4.85
2018-07-07T00:13:19.339Z,5.00
2018-07-07T00:14:23.485Z,4.55
2018-07-07T00:15:27.653Z,4.22
2018-07-07T00:16:31.794Z,4.65
2018-07-07T00:17:35.923Z,4.60
2018-07-07T00:18:40.030Z,4.60
2018-07-07T00:19:44.303Z,4.58
2018-07-07T00:20:48.414Z,4.10
2018-07-07T00:21:52.581Z,4.30
2018-07-07T00:22:56.712Z,4.12
2018-07-07T00:24:00.972Z,4.50
2018-07-07T00:25:05.030Z,4.50
2018-07-07T00:26:09.672Z,4.65
2018-07-07T00:27:14.084Z,5.10
2018-07-07T00:28:17.834Z,4.22
2018-07-07T00:29:21.846Z,4.17
2018-07-07T00:30:25.984Z,4.70
2018-07-07T00:31:30.268Z,4.70
2018-07-07T00:32:34.361Z,4.42
2018-07-07T00:33:38.481Z,4.80
2018-07-07T00:34:42.611Z,4.87
2018-07-07T00:35:50.550Z,4.87
2018-07-07T00:36:55.586Z,4.40
2018-07-07T00:37:59.777Z,5.03
2018-07-07T00:39:03.956Z,4.53
2018-07-07T00:40:08.934Z,4.45
2018-07-07T00:41:13.107Z,4.03
2018-07-07T00:42:17.167Z,4.60
2018-07-07T00:43:21.205Z,4.42
2018-07-07T00:44:25.347Z,4.40
2018-07-07T00:45:29.519Z,4.17
2018-07-07T00:46:33.599Z,4.70
2018-07-07T00:47:37.769Z,4.35
2018-07-07T00:48:41.902Z,3.92
2018-07-07T00:49:46.099Z,4.30
2018-07-07T00:50:50.267Z,4.40
2018-07-07T00:51:54.974Z,3.75
2018-07-07T00:52:59.170Z,4.30
2018-07-07T00:54:03.316Z,4.08
2018-07-07T00:55:07.466Z,4.45
2018-07-07T00:56:11.554Z,4.58
2018-07-07T00:57:15.939Z,4.30
2018-07-07T00:58:20.102Z,4.65
2018-07-07T00:59:24.423Z,4.25
2018-07-07T01:00:33.930Z,4.33
2018-07-07T01:01:38.015Z,4.67
2018-07-07T01:02:42.063Z,4.72
2018-07-07T01:03:46.143Z,4.22
2018-07-07T01:04:52.648Z,4.37
2018-07-07T01:05:56.752Z,4.47
2018-07-07T01:07:00.877Z,4.12
2018-07-07T01:08:05.122Z,4.03
2018-07-07T01:09:09.277Z,4.35
2018-07-07T01:10:13.404Z,4.05
2018-07-07T01:11:17.492Z,4.47
2018-07-07T01:12:21.619Z,4.67
2018-07-07T01:13:25.500Z,4.20
2018-07-07T01:14:29.516Z,4.12
2018-07-07T01:15:33.648Z,4.47
2018-07-07T01:16:37.805Z,4.55
2018-07-07T01:17:41.917Z,4.30
2018-07-07T01:18:46.150Z,4.50
2018-07-07T01:19:50.284Z,4.90
2018-07-07T01:20:54.425Z,4.53
2018-07-07T01:21:58.536Z,4.45
2018-07-07T01:23:03.549Z,4.05
2018-07-07T01:24:07.715Z,4.55
2018-07-07T01:25:11.804Z,4.33
2018-07-07T01:26:15.873Z,4.10
2018-07-07T01:27:19.972Z,4.37
2018-07-07T01:28:24.138Z,4.80
2018-07-07T01:29:28.321Z,4.70
2018-07-07T01:30:32.516Z,4.50
2018-07-07T01:31:36.641Z,4.33
2018-07-07T01:32:40.801Z,4.40
2018-07-07T01:33:44.940Z,4.60
2018-07-07T01:34:49.063Z,4.85
2018-07-07T01:35:52.894Z,4.55
2018-07-07T01:36:56.868Z,4.17
2018-07-07T01:38:01.012Z,4.50
2018-07-07T01:39:05.795Z,4.95
2018-07-07T01:40:09.975Z,4.65
2018-07-07T01:41:14.135Z,4.40
2018-07-07T01:42:18.244Z,4.92
2018-07-07T01:43:22.609Z,4.80
2018-07-07T01:44:32.743Z,4.50
2018-07-07T01:45:42.941Z,4.60
2018-07-07T01:46:47.072Z,4.75
2018-07-07T01:47:51.285Z,4.87
2018-07-07T01:48:55.444Z,5.15
2018-07-07T01:49:59.562Z,5.20
2018-07-07T01:51:03.660Z,5.30
2018-07-07T01:52:07.767Z,4.67
2018-07-07T01:53:11.881Z,5.00
2018-07-07T01:54:15.972Z,5.10
2018-07-07T01:55:20.055Z,4.87
2018-07-07T01:56:24.208Z,5.25
2018-07-07T01:57:28.551Z,5.47
2018-07-07T01:58:32.681Z,5.58
2018-07-07T01:59:36.792Z,5.55
2018-07-07T02:00:41.140Z,5.67
2018-07-07T02:01:45.183Z,6.15
2018-07-07T02:02:49.345Z,5.80
2018-07-07T02:03:53.391Z,5.85
2018-07-07T02:04:57.567Z,5.05
2018-07-07T02:06:01.658Z,5.67
2018-07-07T02:07:06.097Z,5.12
2018-07-07T02:08:10.133Z,5.22
2018-07-07T02:09:14.287Z,4.97
2018-07-07T02:10:18.414Z,4.90
2018-07-07T02:11:22.568Z,5.53
2018-07-07T02:12:26.708Z,5.03
2018-07-07T02:13:30.801Z,5.40
2018-07-07T02:14:34.935Z,5.47
2018-07-07T02:15:40.135Z,5.85
2018-07-07T02:16:44.195Z,5.67
2018-07-07T02:17:48.326Z,4.90
2018-07-07T02:18:52.463Z,5.62
2018-07-07T02:19:56.674Z,5.47
2018-07-07T02:21:00.799Z,5.42
2018-07-07T02:22:05.020Z,4.53
2018-07-07T02:23:09.109Z,5.85
2018-07-07T02:24:13.264Z,5.50
2018-07-07T02:25:17.383Z,5.12
2018-07-07T02:26:21.533Z,5.10
2018-07-07T02:27:25.739Z,4.90
2018-07-07T02:28:29.888Z,5.47
2018-07-07T02:29:34.079Z,5.95
2018-07-07T02:30:38.336Z,6.03
2018-07-07T02:31:42.543Z,6.12
2018-07-07T02:32:46.692Z,6.10
2018-07-07T02:33:50.803Z,5.60
2018-07-07T02:34:54.852Z,5.22
2018-07-07T02:35:58.966Z,5.40
2018-07-07T02:37:03.096Z,5.33
2018-07-07T02:38:07.232Z,5.55
2018-07-07T02:39:11.360Z,5.05
2018-07-07T02:40:15.450Z,5.20
2018-07-07T02:41:19.572Z,5.40
2018-07-07T02:42:23.706Z,4.60
2018-07-07T02:43:27.858Z,5.85
2018-07-07T02:44:31.957Z,5.55
2018-07-07T02:45:36.085Z,5.08
2018-07-07T02:46:40.202Z,5.90
2018-07-07T02:47:44.323Z,5.58
2018-07-07T02:48:48.363Z,5.42
2018-07-07T02:49:52.496Z,6.03
2018-07-07T02:50:56.603Z,5.67
2018-07-07T02:52:00.894Z,6.00
2018-07-07T02:53:05.102Z,5.40
2018-07-07T02:54:08.909Z,5.60
2018-07-07T02:55:12.866Z,5.33
2018-07-07T02:56:16.958Z,5.25
2018-07-07T02:57:21.100Z,5.55
2018-07-07T02:58:25.254Z,5.78
2018-07-07T02:59:29.331Z,5.75
2018-07-07T03:00:33.457Z,5.37
2018-07-07T03:01:37.772Z,5.95
2018-07-07T03:02:41.920Z,5.25
2018-07-07T03:03:45.977Z,5.62
2018-07-07T03:04:50.097Z,5.90
2018-07-07T03:05:54.515Z,5.87
2018-07-07T03:06:58.632Z,5.62
2018-07-07T03:08:02.729Z,6.08
2018-07-07T03:09:06.795Z,5.97
2018-07-07T03:10:10.939Z,5.37
2018-07-07T03:11:15.034Z,5.95
2018-07-07T03:12:19.171Z,5.40
2018-07-07T03:13:23.285Z,5.78
2018-07-07T03:14:27.455Z,5.33
2018-07-07T03:15:31.553Z,5.05
2018-07-07T03:16:35.577Z,5.35
2018-07-07T03:17:39.646Z,5.60
2018-07-07T03:18:43.996Z,5.45
2018-07-07T03:19:48.108Z,5.37
2018-07-07T03:20:52.284Z,5.95
2018-07-07T03:21:56.477Z,5.05
2018-07-07T03:23:00.625Z,6.20
2018-07-07T03:24:04.716Z,5.35
2018-07-07T03:25:09.167Z,5.17
2018-07-07T03:26:13.296Z,6.00
2018-07-07T03:27:17.456Z,5.40
2018-07-07T03:28:21.567Z,5.40
2018-07-07T03:29:25.682Z,5.42
2018-07-07T03:30:29.865Z,5.92
2018-07-07T03:31:34.036Z,5.75
2018-07-07T03:32:38.671Z,5.30
2018-07-07T03:33:42.354Z,5.12
2018-07-07T03:34:46.377Z,5.35
2018-07-07T03:35:50.445Z,5.83
2018-07-07T03:36:54.603Z,5.50
2018-07-07T03:37:58.724Z,5.47
2018-07-07T03:39:02.851Z,6.03
2018-07-07T03:40:06.947Z,6.55
2018-07-07T03:41:11.113Z,6.50
2018-07-07T03:42:15.431Z,5.47
2018-07-07T03:43:19.313Z,5.95
2018-07-07T03:44:23.449Z,6.35
2018-07-07T03:45:27.512Z,5.70
2018-07-07T03:46:31.661Z,5.95
2018-07-07T03:47:35.821Z,6.80
2018-07-07T03:48:40.027Z,6.03
2018-07-07T03:49:44.234Z,5.35
2018-07-07T03:50:48.373Z,5.92
2018-07-07T03:51:52.443Z,5.80
2018-07-07T03:52:56.599Z,6.00
2018-07-07T03:54:00.701Z,6.33
2018-07-07T03:55:04.854Z,5.87
2018-07-07T03:56:08.957Z,6.05
2018-07-07T03:57:13.066Z,5.80
2018-07-07T03:58:17.223Z,6.05
2018-07-07T03:59:21.408Z,6.50
2018-07-07T04:00:26.577Z,6.58
2018-07-07T04:01:30.645Z,6.08
2018-07-07T04:02:34.957Z,6.10
2018-07-07T04:03:39.143Z,6.37
2018-07-07T04:04:43.269Z,6.45
2018-07-07T04:05:47.370Z,5.60
2018-07-07T04:06:51.478Z,5.58
2018-07-07T04:07:55.625Z,6.33
2018-07-07T04:08:59.740Z,6.12
2018-07-07T04:10:03.917Z,6.05
2018-07-07T04:11:08.251Z,6.10
2018-07-07T04:12:12.399Z,5.95
2018-07-07T04:13:16.518Z,5.87
2018-07-07T04:14:20.659Z,6.28
2018-07-07T04:15:24.816Z,5.97
2018-07-07T04:16:28.964Z,5.85
2018-07-07T04:17:32.893Z,5.85
2018-07-07T04:18:36.998Z,6.12
2018-07-07T04:19:41.142Z,6.10
2018-07-07T04:20:45.315Z,5.97
2018-07-07T04:21:49.432Z,6.62
2018-07-07T04:22:53.766Z,6.45
2018-07-07T04:23:57.844Z,6.92
2018-07-07T04:25:02.000Z,6.58
2018-07-07T04:26:06.085Z,6.12
2018-07-07T04:27:10.271Z,6.05
2018-07-07T04:28:14.466Z,6.50
2018-07-07T04:29:18.576Z,6.65
2018-07-07T04:30:22.767Z,6.55
2018-07-07T04:31:26.913Z,6.37
2018-07-07T04:32:31.267Z,6.15
2018-07-07T04:33:35.408Z,6.30
2018-07-07T04:34:39.644Z,7.00
2018-07-07T04:35:43.676Z,6.55
2018-07-07T04:36:47.796Z,6.60
2018-07-07T04:37:52.079Z,6.78
2018-07-07T04:38:56.209Z,7.28
2018-07-07T04:40:00.328Z,6.97
2018-07-07T04:41:04.371Z,6.67
2018-07-07T04:42:08.551Z,6.83
2018-07-07T04:43:12.728Z,7.15
2018-07-07T04:44:16.927Z,6.37
2018-07-07T04:45:21.105Z,6.40
2018-07-07T04:46:25.257Z,6.00
2018-07-07T04:47:29.294Z,6.50
2018-07-07T04:48:33.368Z,6.08
2018-07-07T04:49:37.548Z,6.33
2018-07-07T04:50:41.859Z,6.40
2018-07-07T04:51:45.942Z,6.58
2018-07-07T04:52:50.107Z,7.22
2018-07-07T04:53:54.303Z,6.90
2018-07-07T04:54:58.389Z,7.22
2018-07-07T04:56:02.533Z,6.80
2018-07-07T04:57:06.645Z,6.60
2018-07-07T04:58:10.747Z,6.83
2018-07-07T04:59:14.888Z,6.67
2018-07-07T05:00:18.939Z,6.42
2018-07-07T05:01:23.139Z,6.85
2018-07-07T05:02:27.262Z,6.78
2018-07-07T05:03:31.071Z,6.70
2018-07-07T05:04:35.094Z,7.17
2018-07-07T05:05:39.207Z,7.00
2018-07-07T05:06:43.399Z,6.83
2018-07-07T05:07:47.737Z,6.45
2018-07-07T05:08:51.785Z,6.85
2018-07-07T05:09:55.946Z,7.17
2018-07-07T05:11:00.079Z,6.28
2018-07-07T05:12:04.606Z,6.53
2018-07-07T05:13:08.779Z,6.58
2018-07-07T05:14:12.917Z,6.72
2018-07-07T05:15:16.991Z,7.10
2018-07-07T05:16:21.095Z,7.67
2018-07-07T05:17:25.244Z,7.87
2018-07-07T05:18:29.345Z,7.42
2018-07-07T05:19:33.496Z,7.75
2018-07-07T05:20:37.631Z,7.15
2018-07-07T05:21:41.414Z,7.17
2018-07-07T05:22:45.407Z,8.03
2018-07-07T05:23:49.600Z,7.67
2018-07-07T05:24:53.763Z,6.92
2018-07-07T05:25:57.913Z,7.12
2018-07-07T05:27:01.939Z,7.45
2018-07-07T05:28:06.051Z,7.40
2018-07-07T05:29:10.183Z,7.30
2018-07-07T05:30:14.367Z,7.35
2018-07-07T05:31:18.520Z,7.25
2018-07-07T05:32:22.642Z,7.20
2018-07-07T05:33:26.749Z,7.87
2018-07-07T05:34:30.904Z,7.72
2018-07-07T05:35:35.022Z,7.53
2018-07-07T05:36:42.249Z,8.03
2018-07-07T05:37:46.371Z,7.55
2018-07-07T05:38:50.429Z,7.60
2018-07-07T05:39:54.613Z,7.75
2018-07-07T05:40:58.741Z,7.05
2018-07-07T05:42:03.156Z,7.60
2018-07-07T05:43:07.316Z,7.85
2018-07-07T05:44:11.436Z,8.03
2018-07-07T05:45:15.574Z,8.58
2018-07-07T05:46:19.761Z,8.50
2018-07-07T05:47:23.825Z,8.18
2018-07-07T05:48:27.875Z,8.00
2018-07-07T05:49:32.087Z,7.62
2018-07-07T05:50:36.225Z,6.72
2018-07-07T05:51:40.325Z,7.53
2018-07-07T05:52:44.401Z,8.40
2018-07-07T05:53:48.601Z,7.67
2018-07-07T05:54:52.798Z,7.53
2018-07-07T05:55:56.951Z,8.13
2018-07-07T05:57:01.100Z,7.42
2018-07-07T05:58:05.309Z,7.80
2018-07-07T05:59:09.458Z,7.25
2018-07-07T06:00:14.449Z,7.20
2018-07-07T06:01:18.739Z,7.37
2018-07-07T06:02:22.997Z,7.58
2018-07-07T06:03:27.191Z,7.70
2018-07-07T06:04:31.361Z,7.95
2018-07-07T06:05:35.711Z,7.20
2018-07-07T06:06:39.992Z,7.25
2018-07-07T06:07:44.142Z,7.50
2018-07-07T06:08:48.246Z,7.40
2018-07-07T06:09:52.351Z,7.53
2018-07-07T06:10:56.517Z,8.08
2018-07-07T06:12:00.659Z,8.08
2018-07-07T06:13:04.733Z,7.15
2018-07-07T06:14:08.861Z,7.35
2018-07-07T06:15:13.163Z,6.83
2018-07-07T06:16:17.357Z,6.97
2018-07-07T06:17:21.603Z,7.42
2018-07-07T06:18:25.727Z,6.97
2018-07-07T06:19:30.127Z,7.72
2018-07-07T06:20:34.225Z,7.97
2018-07-07T06:21:38.512Z,7.03
2018-07-07T06:22:42.693Z,7.47
2018-07-07T06:23:46.803Z,8.03
2018-07-07T06:24:50.952Z,7.35
2018-07-07T06:25:55.042Z,7.50
2018-07-07T06:26:59.140Z,7.12
2018-07-07T06:28:03.251Z,7.17
2018-07-07T06:29:07.596Z,7.30
2018-07-07T06:30:11.431Z,7.50
2018-07-07T06:31:15.518Z,7.58
2018-07-07T06:32:19.622Z,7.45
2018-07-07T06:33:23.849Z,6.92
2018-07-07T06:34:27.952Z,7.37
2018-07-07T06:35:32.105Z,6.72
2018-07-07T06:36:36.192Z,6.85
2018-07-07T06:37:40.330Z,6.72
2018-07-07T06:38:44.737Z,6.75
2018-07-07T06:39:48.872Z,7.50
2018-07-07T06:40:53.007Z,7.22
2018-07-07T06:41:57.186Z,7.65
2018-07-07T06:43:01.343Z,7.22
2018-07-07T06:44:05.517Z,7.12
2018-07-07T06:45:09.822Z,6.70
2018-07-07T06:46:14.608Z,7.22
2018-07-07T06:47:18.701Z,7.45
2018-07-07T06:48:22.912Z,7.35
2018-07-07T06:49:27.980Z,7.50
2018-07-07T06:50:32.529Z,7.22
2018-07-07T06:51:37.820Z,7.08
2018-07-07T06:52:41.987Z,7.17
2018-07-07T06:53:46.194Z,7.47
2018-07-07T06:54:50.213Z,7.67
2018-07-07T06:55:54.317Z,7.75
2018-07-07T06:56:58.451Z,7.30
2018-07-07T06:58:02.561Z,7.00
2018-07-07T06:59:06.685Z,6.83
2018-07-07T07:00:10.874Z,6.28
2018-07-07T07:01:15.004Z,6.53
2018-07-07T07:02:19.737Z,6.42
2018-07-07T07:03:23.988Z,6.60
2018-07-07T07:04:28.143Z,7.20
2018-07-07T07:05:33.000Z,7.10
2018-07-07T07:06:37.179Z,8.15
2018-07-07T07:07:41.318Z,6.80
2018-07-07T07:08:45.447Z,7.08
2018-07-07T07:09:49.563Z,6.80
2018-07-07T07:10:53.866Z,6.55
2018-07-07T07:11:57.670Z,7.25
2018-07-07T07:13:01.669Z,6.65
2018-07-07T07:14:05.999Z,6.72
2018-07-07T07:15:10.073Z,6.90
2018-07-07T07:16:14.328Z,7.25
2018-07-07T07:17:18.477Z,7.15
2018-07-07T07:18:22.584Z,7.03
2018-07-07T07:19:26.781Z,6.33
2018-07-07T07:20:30.616Z,5.92
2018-07-07T07:21:34.631Z,6.20
2018-07-07T07:22:39.412Z,6.70
2018-07-07T07:23:43.538Z,6.62
2018-07-07T07:24:47.761Z,6.75
2018-07-07T07:25:51.907Z,6.37
2018-07-07T07:26:55.743Z,6.00
2018-07-07T07:27:59.752Z,6.05
2018-07-07T07:29:04.042Z,5.87
2018-07-07T07:30:09.139Z,6.50
2018-07-07T07:31:12.928Z,6.47
2018-07-07T07:32:16.892Z,6.12
2018-07-07T07:33:20.991Z,5.83
2018-07-07T07:34:25.296Z,6.45
2018-07-07T07:35:29.386Z,6.35
2018-07-07T07:36:42.908Z,5.90
2018-07-07T07:37:47.082Z,5.55
2018-07-07T07:38:51.165Z,5.25
2018-07-07T07:39:55.329Z,5.70
2018-07-07T07:40:59.437Z,5.62
2018-07-07T07:42:03.528Z,6.08
2018-07-07T07:43:07.786Z,4.90
2018-07-07T07:44:11.818Z,5.03
2018-07-07T07:45:15.985Z,5.10
2018-07-07T07:46:20.113Z,5.17
2018-07-07T07:47:24.373Z,4.65
2018-07-07T07:48:28.342Z,4.60
2018-07-07T07:49:32.425Z,4.75
2018-07-07T07:50:36.618Z,4.92
2018-07-07T07:51:40.823Z,4.45
2018-07-07T07:52:44.907Z,4.03
2018-07-07T07:53:48.986Z,4.65
2018-07-07T07:54:53.097Z,4.33
2018-07-07T07:55:57.179Z,4.40
2018-07-07T07:57:01.414Z,4.55
2018-07-07T07:58:05.605Z,4.00
2018-07-07T07:59:09.654Z,3.50
2018-07-07T08:00:13.773Z,4.10
2018-07-07T08:01:17.848Z,3.87
2018-07-07T08:02:21.958Z,3.85
2018-07-07T08:03:26.011Z,3.90
2018-07-07T08:04:30.117Z,3.70
2018-07-07T08:05:34.231Z,3.47
2018-07-07T08:06:38.382Z,4.08
2018-07-07T08:07:42.485Z,3.90
2018-07-07T08:08:46.571Z,4.10
2018-07-07T08:09:50.776Z,3.77
2018-07-07T08:10:54.605Z,3.52
2018-07-07T08:11:58.552Z,3.47
2018-07-07T08:13:02.425Z,3.40
2018-07-07T08:14:06.516Z,3.47
2018-07-07T08:15:10.591Z,3.42
2018-07-07T08:16:14.712Z,3.35
2018-07-07T08:17:18.858Z,3.20
2018-07-07T08:18:23.082Z,3.20
2018-07-07T08:19:27.814Z,3.58
2018-07-07T08:20:31.983Z,3.30
2018-07-07T08:21:36.271Z,3.10
2018-07-07T08:22:40.474Z,3.20
2018-07-07T08:23:44.619Z,3.08
2018-07-07T08:24:48.800Z,3.70
2018-07-07T08:25:52.937Z,3.58
2018-07-07T08:26:57.004Z,3.40
2018-07-07T08:28:01.166Z,3.27
2018-07-07T08:29:05.281Z,3.65
2018-07-07T08:30:09.515Z,3.52
2018-07-07T08:31:13.603Z,3.30
2018-07-07T08:32:17.725Z,3.30
2018-07-07T08:33:22.168Z,3.20
2018-07-07T08:34:26.374Z,3.08
2018-07-07T08:35:30.464Z,3.40
2018-07-07T08:36:34.619Z,3.20
2018-07-07T08:37:38.664Z,3.00
2018-07-07T08:38:42.801Z,3.47
2018-07-07T08:39:46.941Z,3.17
2018-07-07T08:40:51.100Z,3.55
2018-07-07T08:41:55.253Z,2.90
2018-07-07T08:42:59.377Z,3.05
2018-07-07T08:44:03.468Z,3.25
2018-07-07T08:45:07.572Z,3.10
2018-07-07T08:46:11.681Z,2.92
2018-07-07T08:47:15.518Z,2.95
2018-07-07T08:48:19.477Z,3.00
2018-07-07T08:49:23.981Z,2.75
2018-07-07T08:50:28.108Z,3.00
2018-07-07T08:51:32.171Z,3.35
2018-07-07T08:52:36.359Z,3.10
2018-07-07T08:53:40.460Z,3.52
2018-07-07T08:54:44.555Z,2.92
2018-07-07T08:55:48.731Z,3.20
2018-07-07T08:56:52.866Z,2.95
2018-07-07T08:57:56.962Z,3.08
2018-07-07T08:59:01.133Z,3.20
2018-07-07T09:00:05.344Z,3.37
2018-07-07T09:01:09.499Z,3.60
2018-07-07T09:02:13.738Z,3.60
2018-07-07T09:03:17.837Z,3.50
2018-07-07T09:04:21.945Z,3.55
2018-07-07T09:05:26.036Z,3.70
2018-07-07T09:06:30.207Z,3.80
2018-07-07T09:07:34.406Z,3.35
2018-07-07T09:08:38.484Z,3.50
2018-07-07T09:09:42.621Z,3.72
2018-07-07T09:10:46.737Z,3.65
2018-07-07T09:11:50.576Z,3.62
2018-07-07T09:12:54.633Z,3.40
2018-07-07T09:13:58.822Z,3.42
2018-07-07T09:15:03.023Z,3.37
2018-07-07T09:16:07.166Z,3.67
2018-07-07T09:17:11.314Z,3.62
2018-07-07T09:18:15.399Z,4.33
2018-07-07T09:19:19.613Z,3.67
2018-07-07T09:20:23.746Z,3.55
2018-07-07T09:21:27.885Z,3.27
2018-07-07T09:22:32.013Z,3.20
2018-07-07T09:23:36.150Z,3.58
2018-07-07T09:24:40.271Z,3.37
2018-07-07T09:25:44.469Z,3.05
2018-07-07T09:26:48.601Z,3.30
2018-07-07T09:27:55.690Z,3.65
2018-07-07T09:28:59.798Z,3.80
2018-07-07T09:30:03.948Z,3.30
2018-07-07T09:31:08.658Z,3.55
2018-07-07T09:32:12.815Z,3.70
2018-07-07T09:33:16.981Z,3.30
2018-07-07T09:34:21.081Z,3.30
2018-07-07T09:35:25.216Z,3.42
2018-07-07T09:36:29.365Z,3.77
2018-07-07T09:37:33.430Z,2.90
2018-07-07T09:38:37.545Z,3.27
2018-07-07T09:39:41.669Z,3.25
2018-07-07T09:40:45.809Z,3.20
2018-07-07T09:41:49.917Z,3.27
2018-07-07T09:42:54.824Z,3.00
2018-07-07T09:43:58.978Z,3.30
2018-07-07T09:45:03.167Z,3.67
2018-07-07T09:46:07.255Z,3.37
2018-07-07T09:47:11.411Z,3.40
2018-07-07T09:48:15.590Z,2.87
2018-07-07T09:49:19.698Z,3.03
2018-07-07T09:50:23.909Z,3.13
2018-07-07T09:51:27.994Z,3.47
2018-07-07T09:52:32.118Z,3.30
2018-07-07T09:53:36.251Z,3.27
2018-07-07T09:54:40.392Z,3.40
2018-07-07T09:55:44.481Z,3.08
2018-07-07T09:56:48.645Z,3.20
2018-07-07T09:57:52.749Z,2.90
2018-07-07T09:58:56.931Z,3.15
2018-07-07T10:00:01.016Z,3.10
2018-07-07T10:01:05.092Z,3.00
2018-07-07T10:02:09.385Z,3.08
2018-07-07T10:03:13.593Z,3.10
2018-07-07T10:04:17.685Z,3.33
2018-07-07T10:05:21.843Z,3.10
2018-07-07T10:06:25.979Z,3.00
2018-07-07T10:07:30.069Z,2.97
2018-07-07T10:08:34.233Z,3.08
2018-07-07T10:09:38.353Z,2.98
2018-07-07T10:10:42.473Z,3.00
2018-07-07T10:11:46.616Z,2.77
2018-07-07T10:12:50.433Z,2.70
2018-07-07T10:13:54.521Z,3.07
2018-07-07T10:14:58.688Z,3.00
2018-07-07T10:16:02.810Z,3.00
2018-07-07T10:17:07.100Z,3.60
2018-07-07T10:18:11.213Z,2.53
2018-07-07T10:19:15.322Z,3.33
2018-07-07T10:20:19.457Z,3.20
2018-07-07T10:21:23.629Z,3.23
2018-07-07T10:22:27.769Z,3.40
2018-07-07T10:23:31.860Z,3.20
2018-07-07T10:24:36.066Z,3.00
2018-07-07T10:25:40.129Z,2.80
2018-07-07T10:26:44.195Z,2.60
2018-07-07T10:27:48.256Z,2.63
2018-07-07T10:28:52.367Z,2.80
2018-07-07T10:29:56.676Z,2.80
2018-07-07T10:31:00.898Z,2.80
2018-07-07T10:32:05.059Z,2.97
2018-07-07T10:33:09.280Z,2.40
2018-07-07T10:34:13.337Z,2.53
2018-07-07T10:35:17.471Z,3.00
2018-07-07T10:36:21.625Z,2.57
2018-07-07T10:37:25.855Z,2.47
2018-07-07T10:38:30.339Z,2.80
2018-07-07T10:39:34.482Z,2.77
2018-07-07T10:40:38.706Z,2.87
2018-07-07T10:41:42.889Z,2.60
2018-07-07T10:42:47.056Z,3.03
2018-07-07T10:43:52.033Z,2.83
2018-07-07T10:44:56.144Z,3.30
2018-07-07T10:46:00.358Z,2.97
2018-07-07T10:47:04.421Z,3.10
2018-07-07T10:48:08.616Z,2.87
2018-07-07T10:49:12.774Z,3.13
2018-07-07T10:50:16.903Z,2.97
2018-07-07T10:51:21.774Z,2.83
2018-07-07T10:52:25.884Z,2.90
2018-07-07T10:53:30.035Z,2.90
2018-07-07T10:54:34.143Z,3.03
2018-07-07T10:55:38.343Z,2.53
2018-07-07T10:56:42.376Z,2.90
2018-07-07T10:57:46.497Z,2.50
2018-07-07T10:58:50.704Z,2.53
2018-07-07T10:59:55.043Z,2.33
2018-07-07T11:00:59.191Z,2.77
2018-07-07T11:02:03.357Z,2.70
2018-07-07T11:03:07.527Z,2.80
2018-07-07T11:04:12.244Z,2.57
2018-07-07T11:05:16.307Z,2.80
2018-07-07T11:06:20.395Z,3.23
2018-07-07T11:07:24.524Z,2.60
2018-07-07T11:08:28.693Z,2.97
2018-07-07T11:09:32.865Z,3.10
2018-07-07T11:10:37.176Z,2.57
2018-07-07T11:11:41.234Z,2.70
2018-07-07T11:12:45.336Z,3.00
2018-07-07T11:13:49.501Z,3.10
2018-07-07T11:14:53.603Z,2.60
2018-07-07T11:15:57.715Z,2.97
2018-07-07T11:17:01.807Z,3.10
2018-07-07T11:18:05.908Z,2.50
2018-07-07T11:19:10.632Z,2.73
2018-07-07T11:20:14.772Z,2.70
2018-07-07T11:21:18.910Z,2.87
2018-07-07T11:22:23.007Z,2.90
2018-07-07T11:23:27.125Z,3.03
2018-07-07T11:24:31.267Z,2.90
2018-07-07T11:25:35.461Z,2.90
2018-07-07T11:26:39.545Z,3.00
2018-07-07T11:27:43.712Z,3.03
2018-07-07T11:28:47.806Z,3.07
2018-07-07T11:29:52.087Z,2.80
2018-07-07T11:30:56.159Z,3.40
2018-07-07T11:32:00.279Z,2.63
2018-07-07T11:33:04.441Z,2.70
2018-07-07T11:34:08.591Z,2.80
2018-07-07T11:35:12.750Z,2.80
2018-07-07T11:36:16.940Z,3.00
2018-07-07T11:37:20.987Z,2.97
2018-07-07T11:38:25.147Z,2.90
2018-07-07T11:39:29.395Z,3.10
2018-07-07T11:40:34.020Z,2.80
2018-07-07T11:41:37.882Z,2.77
2018-07-07T11:42:41.958Z,2.73
2018-07-07T11:43:46.207Z,2.53
2018-07-07T11:44:50.255Z,2.10
2018-07-07T11:45:54.463Z,2.47
2018-07-07T11:46:58.613Z,2.50
2018-07-07T11:48:02.777Z,2.50
2018-07-07T11:49:06.953Z,2.30
2018-07-07T11:50:11.094Z,2.40
2018-07-07T11:51:15.205Z,2.77
2018-07-07T11:52:19.309Z,2.47
2018-07-07T11:53:23.446Z,2.30
2018-07-07T11:54:27.495Z,2.60
2018-07-07T11:55:31.683Z,2.27
2018-07-07T11:56:35.715Z,2.43
2018-07-07T11:57:39.503Z,2.63
2018-07-07T11:58:43.522Z,2.77
2018-07-07T11:59:47.819Z,2.60
2018-07-07T12:00:51.955Z,2.63
2018-07-07T12:01:56.089Z,2.50
2018-07-07T12:03:00.198Z,2.23
2018-07-07T12:04:04.327Z,2.27
2018-07-07T12:05:08.464Z,2.20
2018-07-07T12:06:12.599Z,2.40
2018-07-07T12:07:16.733Z,2.37
2018-07-07T12:08:20.858Z,2.40
2018-07-07T12:09:24.985Z,2.23
2018-07-07T12:10:29.184Z,2.37
2018-07-07T12:11:33.288Z,2.37
2018-07-07T12:12:37.415Z,2.30
2018-07-07T12:13:41.539Z,2.13
2018-07-07T12:14:45.774Z,2.47
2018-07-07T12:15:49.621Z,2.50
2018-07-07T12:16:53.657Z,2.27
2018-07-07T12:17:57.717Z,2.30
2018-07-07T12:19:01.831Z,2.23
2018-07-07T12:20:06.269Z,2.37
2018-07-07T12:21:10.419Z,2.17
2018-07-07T12:22:14.530Z,2.40
2018-07-07T12:23:18.673Z,2.53
2018-07-07T12:24:22.833Z,2.20
2018-07-07T12:25:27.078Z,2.40
2018-07-07T12:26:31.234Z,2.40
2018-07-07T12:27:35.376Z,2.23
2018-07-07T12:28:39.432Z,2.30
2018-07-07T12:29:43.672Z,2.30
2018-07-07T12:30:47.811Z,2.70
2018-07-07T12:31:51.981Z,2.40
2018-07-07T12:32:57.461Z,2.30
2018-07-07T12:34:01.614Z,2.40
2018-07-07T12:35:05.785Z,2.47
2018-07-07T12:36:09.616Z,2.33
2018-07-07T12:37:13.777Z,2.60
2018-07-07T12:38:17.964Z,2.70
2018-07-07T12:39:22.031Z,2.53
2018-07-07T12:40:26.147Z,2.30
2018-07-07T12:41:30.239Z,2.13
2018-07-07T12:42:34.428Z,2.40
2018-07-07T12:43:38.662Z,2.60
2018-07-07T12:44:42.691Z,1.90
2018-07-07T12:45:46.786Z,2.43
2018-07-07T12:46:50.938Z,2.60
2018-07-07T12:47:55.091Z,2.17
2018-07-07T12:48:59.327Z,2.27
2018-07-07T12:50:03.492Z,2.37
2018-07-07T12:51:07.996Z,2.23
2018-07-07T12:52:12.185Z,2.40
2018-07-07T12:53:16.419Z,2.00
2018-07-07T12:54:20.579Z,2.30
2018-07-07T12:55:24.736Z,2.20
2018-07-07T12:56:28.935Z,2.27
2018-07-07T12:57:33.117Z,2.50
2018-07-07T12:58:37.271Z,2.30
2018-07-07T12:59:41.367Z,2.53
2018-07-07T13:00:45.460Z,2.30
2018-07-07T13:01:49.648Z,2.27
2018-07-07T13:02:53.750Z,2.20
2018-07-07T13:03:57.815Z,2.27
2018-07-07T13:05:02.007Z,2.10
2018-07-07T13:06:06.455Z,2.43
2018-07-07T13:07:10.595Z,2.30
2018-07-07T13:08:14.757Z,2.20
2018-07-07T13:09:18.929Z,2.07
2018-07-07T13:10:23.172Z,2.07
2018-07-07T13:11:27.283Z,2.00
2018-07-07T13:12:31.650Z,2.40
2018-07-07T13:13:35.795Z,2.20
2018-07-07T13:14:39.948Z,2.40
2018-07-07T13:15:44.296Z,2.10
2018-07-07T13:16:48.378Z,2.30
2018-07-07T13:17:52.522Z,2.63
2018-07-07T13:18:56.716Z,2.47
2018-07-07T13:20:00.883Z,2.33
2018-07-07T13:21:05.056Z,2.30
2018-07-07T13:22:09.184Z,2.47
2018-07-07T13:23:13.323Z,2.40
2018-07-07T13:24:17.549Z,2.23
2018-07-07T13:25:21.668Z,2.37
2018-07-07T13:26:25.857Z,2.40
2018-07-07T13:27:29.893Z,2.33
2018-07-07T13:28:34.040Z,2.60
2018-07-07T13:29:37.973Z,2.30
2018-07-07T13:30:41.958Z,2.60
2018-07-07T13:31:46.056Z,2.73
2018-07-07T13:32:50.145Z,2.70
2018-07-07T13:33:54.284Z,2.73
2018-07-07T13:34:58.359Z,2.50
2018-07-07T13:36:02.505Z,2.67
2018-07-07T13:37:06.963Z,2.43
2018-07-07T13:38:11.135Z,2.60
2018-07-07T13:39:15.236Z,2.57
2018-07-07T13:40:19.352Z,2.63
2018-07-07T13:41:23.530Z,2.40
2018-07-07T13:42:27.724Z,2.50
2018-07-07T13:43:31.821Z,2.80
2018-07-07T13:44:35.965Z,2.47
2018-07-07T13:45:40.354Z,2.67
2018-07-07T13:46:44.505Z,2.83
2018-07-07T13:47:48.659Z,2.67
2018-07-07T13:48:52.777Z,2.60
2018-07-07T13:49:56.956Z,2.60
2018-07-07T13:51:01.108Z,2.50
2018-07-07T13:52:05.362Z,2.50
2018-07-07T13:53:09.439Z,2.53
2018-07-07T13:54:13.881Z,2.80
2018-07-07T13:55:18.016Z,2.70
2018-07-07T13:56:22.079Z,2.80
2018-07-07T13:57:26.171Z,2.60
2018-07-07T13:58:30.338Z,2.40
2018-07-07T13:59:34.493Z,2.60
2018-07-07T14:00:38.680Z,2.73
2018-07-07T14:01:42.840Z,2.80
2018-07-07T14:02:46.956Z,3.07
2018-07-07T14:03:51.080Z,2.77
2018-07-07T14:04:55.219Z,2.77
2018-07-07T14:05:59.302Z,2.73
2018-07-07T14:07:03.505Z,2.80
2018-07-07T14:08:07.639Z,2.50
2018-07-07T14:09:11.776Z,3.17
2018-07-07T14:10:15.959Z,2.90
2018-07-07T14:11:20.080Z,2.70
2018-07-07T14:12:24.422Z,2.77
2018-07-07T14:13:28.551Z,2.60
2018-07-07T14:14:32.796Z,2.73